createdAt,value
2023-03-11T00:03:29.138Z,2.682274247491639
2023-03-11T00:09:48.593Z,2.367892976588629
2023-03-11T00:16:08.117Z,2.6755852842809364
2023-03-11T00:22:53.723Z,1.5719063545150502
2023-03-11T00:29:13.094Z,2.451505016722408
2023-03-11T00:36:24.487Z,2.762541806020067
2023-03-11T00:47:21.620Z,3.468227424749164
2023-03-11T00:53:41.810Z,3.2441471571906355
2023-03-11T01:06:19.065Z,2.4448160535117056
2023-03-11T01:12:39.238Z,2.6254180602006687
2023-03-11T01:18:58.687Z,1.6555183946488294
2023-03-11T01:25:18.127Z,0.5752508361204013
2023-03-11T01:31:36.995Z,1.351170568561873
2023-03-11T01:41:33.638Z,0.7859531772575251
2023-03-11T01:47:53.194Z,1.0501672240802675
2023-03-11T01:54:14.482Z,0.7959866220735786
2023-03-11T02:00:33.486Z,0.6354515050167224
2023-03-11T02:07:06.533Z,1.3444816053511706
2023-03-11T02:13:31.002Z,1.7324414715719063
2023-03-11T02:19:50.915Z,1.2107023411371238
2023-03-11T02:26:11.617Z,1.1337792642140467
2023-03-11T02:32:30.465Z,0.9163879598662207
2023-03-11T02:38:49.681Z,1.6354515050167224
2023-03-11T02:45:08.714Z,1.7725752508361203
2023-03-11T02:51:27.340Z,1.6421404682274248
2023-03-11T02:57:49.178Z,2.4180602006688963
2023-03-11T03:04:07.874Z,1.4581939799331103
2023-03-11T03:10:26.855Z,1.4247491638795986
2023-03-11T03:16:45.675Z,0.6956521739130435
2023-03-11T03:23:06.743Z,1.060200668896321
2023-03-11T03:29:26.307Z,0.5484949832775919
2023-03-11T03:35:47.318Z,0.42474916387959866
2023-03-11T03:42:06.946Z,0.7692307692307693
2023-03-11T03:49:38.447Z,0.5050167224080268
2023-03-11T03:55:56.621Z,0.3745819397993311
2023-03-11T04:06:13.495Z,0.24749163879598662
2023-03-11T04:12:31.940Z,0.4414715719063545
2023-03-11T04:18:51.522Z,0.5484949832775919
2023-03-11T04:32:19.087Z,0.9063545150501672
2023-03-11T04:40:16.691Z,2.237458193979933
2023-03-11T04:57:41.816Z,0.9933110367892977
2023-03-11T05:10:43.059Z,2.250836120401338
2023-03-11T05:17:01.494Z,1.7692307692307692
2023-03-11T05:26:04.358Z,0.35785953177257523
2023-03-11T05:32:23.499Z,0.14381270903010032
2023-03-11T05:38:43.691Z,0.20735785953177258
2023-03-11T05:45:02.914Z,0.25418060200668896
2023-03-11T05:51:21.097Z,0.1705685618729097
2023-03-11T05:57:42.821Z,0.5618729096989966
2023-03-11T06:09:19.126Z,0.5852842809364549
2023-03-11T06:15:39.352Z,0.28762541806020064
2023-03-11T06:25:51.125Z,0.5217391304347826
2023-03-11T06:32:09.733Z,0.5418060200668896
2023-03-11T06:38:28.013Z,0.39464882943143814
2023-03-11T06:44:45.933Z,0.5451505016722408
2023-03-11T06:51:06.131Z,1.2173913043478262
2023-03-11T06:57:26.367Z,0.5719063545150501
2023-03-11T07:03:47.526Z,4.789297658862877
2023-03-11T07:10:06.566Z,27.846153846153847
2023-03-11T07:16:26.944Z,19.47826086956522
2023-03-11T07:27:36.115Z,7.983277591973244
2023-03-11T07:33:56.247Z,1.351170568561873
2023-03-11T07:40:15.093Z,2.411371237458194
2023-03-11T07:48:45.283Z,6.719063545150502
2023-03-11T07:55:05.446Z,2.9163879598662206
2023-03-11T08:01:24.663Z,2.688963210702341
2023-03-11T08:07:45.289Z,2.82943143812709
2023-03-11T08:14:06.602Z,2.076923076923077
2023-03-11T08:20:27.933Z,1.6321070234113713
2023-03-11T08:33:48.542Z,2.2441471571906355
2023-03-11T08:40:10.346Z,5.792642140468227
2023-03-11T08:46:32.792Z,7.193979933110368
2023-03-11T08:52:55.152Z,4.160535117056856
2023-03-11T08:59:17.487Z,2.9732441471571907
2023-03-11T09:05:38.429Z,2.688963210702341
2023-03-11T09:11:59.154Z,2.5585284280936453
2023-03-11T09:18:20.813Z,2.016722408026756
2023-03-11T09:24:43.204Z,2.4247491638795986
2023-03-11T09:39:06.026Z,1.9464882943143813
2023-03-11T09:45:37.305Z,1.431438127090301
2023-03-11T09:55:48.743Z,6.74247491638796
2023-03-11T10:02:14.210Z,3.5451505016722407
2023-03-11T10:08:37.711Z,2.9866220735785953
2023-03-11T10:14:59.987Z,4.11371237458194
2023-03-11T10:21:25.536Z,3.1070234113712374
2023-03-11T10:27:48.289Z,4.334448160535117
2023-03-11T10:36:40.658Z,3.2876254180602005
2023-03-11T10:43:03.861Z,2.42809364548495
2023-03-11T10:56:55.179Z,5.337792642140468
2023-03-11T11:03:17.188Z,2.4949832775919734
2023-03-11T11:09:38.914Z,5.301003344481606
2023-03-11T11:16:01.080Z,5.474916387959866
2023-03-11T11:22:24.092Z,2.68561872909699
2023-03-11T11:28:46.674Z,2.0903010033444818
2023-03-11T11:40:07.339Z,1.8896321070234114
2023-03-11T11:49:22.164Z,1.3444816053511706
2023-03-11T12:02:23.745Z,0.8361204013377926
2023-03-11T12:08:48.181Z,0.5852842809364549
2023-03-11T12:15:12.657Z,0.6889632107023411
2023-03-11T12:21:37.781Z,0.5050167224080268
2023-03-11T12:28:01.916Z,0.3745819397993311
2023-03-11T12:37:27.816Z,0.9665551839464883
2023-03-11T12:49:24.997Z,0.5785953177257525
2023-03-11T12:55:55.513Z,0.41471571906354515
2023-03-11T13:02:25.882Z,0.6889632107023411
2023-03-11T13:08:51.105Z,0.9264214046822743
2023-03-11T13:17:33.909Z,1.2842809364548495
2023-03-11T13:28:02.245Z,1.7959866220735785
2023-03-11T13:34:29.158Z,0.7725752508361204
2023-03-11T13:40:52.999Z,0.3979933110367893
2023-03-11T13:47:16.484Z,0.9063545150501672
2023-03-11T13:53:39.628Z,0.6688963210702341
2023-03-11T14:00:11.265Z,1.160535117056856
2023-03-11T14:06:32.982Z,1.5418060200668897
2023-03-11T14:12:54.685Z,1.2575250836120402
2023-03-11T14:30:52.020Z,0.7491638795986622
2023-03-11T14:37:12.778Z,0.7290969899665551
2023-03-11T14:43:39.509Z,0.568561872909699
2023-03-11T14:50:05.045Z,0.8695652173913043
2023-03-11T14:59:14.139Z,0.48494983277591974
2023-03-11T15:05:35.444Z,0.36789297658862874
2023-03-11T15:11:58.046Z,0.08695652173913043
2023-03-11T15:18:19.805Z,0.27759197324414714
2023-03-11T15:24:45.721Z,0.25418060200668896
2023-03-11T15:31:08.910Z,0.25752508361204013
2023-03-11T15:37:33.038Z,0.18394648829431437
2023-03-11T15:47:33.924Z,0.40468227424749165
2023-03-11T15:53:55.894Z,1.2408026755852843
2023-03-11T16:00:17.644Z,0.8193979933110368
2023-03-11T16:06:43.251Z,1.8963210702341138
2023-03-11T16:18:59.128Z,0.6655518394648829
2023-03-11T16:25:22.555Z,1.3110367892976589
2023-03-11T16:33:06.346Z,0.6989966555183946
2023-03-11T16:39:27.949Z,1.4180602006688963
2023-03-11T16:45:51.482Z,1.4013377926421404
2023-03-11T16:52:14.042Z,2.9565217391304346
2023-03-11T16:58:37.186Z,3.7859531772575252
2023-03-11T17:04:59.927Z,3.408026755852843
2023-03-11T17:16:35.726Z,3.117056856187291
2023-03-11T17:26:01.869Z,7.006688963210703
2023-03-11T17:32:22.333Z,5.812709030100335
2023-03-11T17:38:44.555Z,5.464882943143813
2023-03-11T17:45:07.826Z,2.4615384615384617
2023-03-11T17:51:31.157Z,3.4983277591973243
2023-03-11T17:57:56.026Z,6.622073578595318
2023-03-11T18:04:19.225Z,5.913043478260869
2023-03-11T18:10:44.653Z,4.842809364548495
2023-03-11T18:22:09.363Z,1.234113712374582
2023-03-11T18:34:13.731Z,2.9264214046822743
2023-03-11T18:40:37.774Z,3.42809364548495
2023-03-11T18:47:01.742Z,2.2842809364548495
2023-03-11T18:53:25.257Z,2.130434782608696
2023-03-11T19:02:06.340Z,5.090301003344481
2023-03-11T19:14:32.778Z,5.384615384615385
2023-03-11T19:20:58.503Z,5.575250836120401
2023-03-11T19:27:27.854Z,6.448160535117057
2023-03-11T19:33:52.669Z,7.919732441471572
2023-03-11T19:44:53.086Z,8.79598662207358
2023-03-11T19:51:59.254Z,9.645484949832776
2023-03-11T20:01:56.414Z,10.842809364548495
2023-03-11T20:10:52.634Z,9.588628762541806
2023-03-11T20:20:10.517Z,8.866220735785953
2023-03-11T20:26:37.545Z,9.551839464882944
2023-03-11T20:33:00.449Z,9.063545150501673
2023-03-11T20:39:22.839Z,9.010033444816054
2023-03-11T20:45:46.604Z,10.327759197324415
2023-03-11T20:52:07.582Z,8.956521739130435
2023-03-11T20:58:29.309Z,6.8361204013377925
2023-03-11T21:04:49.560Z,6.474916387959866
2023-03-11T21:16:37.413Z,6.374581939799331
2023-03-11T21:23:01.064Z,6.361204013377926
2023-03-11T21:33:22.206Z,6.117056856187291
2023-03-11T21:39:45.352Z,6.083612040133779
2023-03-11T21:48:42.867Z,5.294314381270903
2023-03-11T21:59:10.622Z,5.217391304347826
2023-03-11T22:05:31.297Z,5.618729096989966
2023-03-11T22:12:44.884Z,6.2274247491638794
2023-03-11T22:20:55.110Z,5.782608695652174
2023-03-11T22:27:13.868Z,5.508361204013378
2023-03-11T22:33:32.330Z,6.210702341137123
2023-03-11T22:42:50.480Z,5.247491638795987
2023-03-11T22:49:09.882Z,5.578595317725752
2023-03-11T22:55:29.711Z,4.966555183946488
2023-03-11T23:01:47.893Z,5.404682274247492
2023-03-11T23:08:06.214Z,5.103678929765886
2023-03-11T23:14:37.858Z,5.79933110367893
2023-03-11T23:21:00.301Z,6.638795986622074
2023-03-11T23:27:18.471Z,5.3478260869565215
2023-03-11T23:33:36.537Z,5.548494983277592
2023-03-11T23:39:55.926Z,4.682274247491639
2023-03-11T23:46:15.529Z,5.337792642140468
2023-03-11T23:52:33.184Z,6.127090301003345
2023-03-11T23:58:50.948Z,5.471571906354515
